Time;durP1;ratioP1;P1;durP2;ratioP2;P2;SDS_P1;SDS_P2;PMS_P1;PMS_P2;Temp;Humidity;BMP_temperature;BMP_pressure;BME280_temperature;BME280_humidity;BME280_pressure;Samples;Min_cycle;Max_cycle;Signal;HPM_P1;HPM_P2
2022/02/18 00:02:15;;;;;;;1.97;0.80;;;17.40;63.30;;;;;;10372293;28;20226;-65
2022/02/18 00:07:37;;;;;;;3.00;1.20;;;17.40;63.30;;;;;;10372031;28;20222;-65
2022/02/18 00:13:01;;;;;;;3.93;1.17;;;17.40;63.20;;;;;;10373597;28;20233;-64
2022/02/18 00:18:23;;;;;;;2.00;0.83;;;17.40;63.30;;;;;;10373437;28;20190;-65
2022/02/18 00:23:45;;;;;;;1.67;1.00;;;17.40;63.30;;;;;;10373041;28;20227;-65
2022/02/18 00:29:09;;;;;;;3.20;1.17;;;17.40;63.20;;;;;;10372839;28;20689;-65
2022/02/18 00:34:31;;;;;;;2.23;0.90;;;17.40;63.20;;;;;;10381102;28;20218;-65
2022/02/18 00:39:53;;;;;;;2.60;0.93;;;17.40;63.20;;;;;;10371149;28;20248;-65
2022/02/18 00:45:16;;;;;;;3.17;1.10;;;17.40;63.20;;;;;;10334813;28;20211;-65
2022/02/18 00:50:39;;;;;;;2.53;0.80;;;17.40;63.20;;;;;;10370256;28;20225;-65
2022/02/18 00:56:01;;;;;;;2.47;0.93;;;17.40;63.20;;;;;;10371436;28;20201;-66
2022/02/18 01:01:24;;;;;;;4.23;1.10;;;17.40;63.20;;;;;;10369837;28;20226;-65
2022/02/18 01:06:46;;;;;;;1.97;1.00;;;17.40;63.20;;;;;;10369717;28;20210;-65
2022/02/18 01:12:08;;;;;;;2.87;0.87;;;17.40;63.30;;;;;;10371657;28;20238;-65
2022/02/18 01:17:32;;;;;;;1.63;0.60;;;17.40;63.30;;;;;;10378886;28;20674;-65
2022/02/18 01:22:54;;;;;;;2.63;0.83;;;17.40;63.30;;;;;;10367423;28;20225;-65
2022/02/18 01:28:16;;;;;;;3.13;0.87;;;17.40;63.20;;;;;;10374722;28;20221;-65
2022/02/18 01:33:40;;;;;;;2.37;0.90;;;17.40;63.20;;;;;;10384275;28;20221;-65
2022/02/18 01:39:02;;;;;;;0.93;0.63;;;17.40;63.20;;;;;;10369179;28;20186;-65
2022/02/18 01:44:36;;;;;;;2.63;1.27;;;17.40;63.20;;;;;;10370738;28;20217;-65
2022/02/18 01:49:59;;;;;;;1.67;0.73;;;17.40;63.10;;;;;;10369454;28;20230;-65
2022/02/18 01:55:23;;;;;;;2.63;0.90;;;17.40;63.30;;;;;;10365138;28;20574;-66
2022/02/18 02:00:45;;;;;;;3.30;0.80;;;17.40;63.30;;;;;;10369263;28;20214;-65
2022/02/18 02:06:10;;;;;;;1.80;0.73;;;17.40;63.30;;;;;;10370635;28;20202;-65
2022/02/18 02:11:32;;;;;;;2.60;0.77;;;17.40;63.30;;;;;;10369921;28;20230;-65
2022/02/18 02:16:54;;;;;;;2.40;0.90;;;17.40;63.30;;;;;;10362018;28;20190;-65
2022/02/18 02:22:23;;;;;;;1.93;0.87;;;17.40;63.40;;;;;;10367696;28;20222;-65
2022/02/18 02:27:45;;;;;;;3.10;0.90;;;17.40;63.40;;;;;;10369788;28;20206;-65
2022/02/18 02:33:07;;;;;;;1.57;0.67;;;17.40;63.30;;;;;;10385912;23;20244;-71
2022/02/18 02:38:30;;;;;;;2.27;0.67;;;17.30;63.30;;;;;;10449984;28;20193;-70
2022/02/18 02:43:53;;;;;;;2.03;1.00;;;17.40;63.30;;;;;;10451539;28;20217;-70
2022/02/18 02:49:15;;;;;;;2.53;0.83;;;17.30;63.30;;;;;;10458452;28;20583;-70
2022/02/18 02:54:39;;;;;;;2.07;0.73;;;17.40;63.30;;;;;;10453291;28;20209;-69
2022/02/18 03:00:01;;;;;;;1.40;0.93;;;17.30;63.30;;;;;;10458873;28;20189;-70
2022/02/18 03:05:23;;;;;;;1.33;0.60;;;17.30;63.30;;;;;;10434509;28;20298;-70
2022/02/18 03:11:14;;;;;;;1.73;0.70;;;17.30;63.30;;;;;;10458443;28;20224;-70
2022/02/18 03:16:29;;;;;;;3.53;0.80;;;17.30;63.30;;;;;;10457951;28;20217;-70
2022/02/18 03:21:51;;;;;;;1.37;0.57;;;17.30;63.30;;;;;;10419311;28;20215;-69
2022/02/18 03:27:15;;;;;;;1.67;0.70;;;17.30;63.30;;;;;;10457200;28;20240;-70
2022/02/18 03:32:37;;;;;;;2.37;0.80;;;17.30;63.30;;;;;;10457100;28;20197;-70
2022/02/18 03:37:59;;;;;;;1.40;0.73;;;17.30;63.30;;;;;;10456217;28;20667;-69
2022/02/18 03:43:23;;;;;;;3.70;1.20;;;17.40;63.30;;;;;;10456605;28;20596;-69
2022/02/18 03:48:45;;;;;;;1.93;0.77;;;17.30;63.90;;;;;;10455823;28;20229;-72
2022/02/18 03:54:08;;;;;;;1.47;0.60;;;17.30;63.30;;;;;;10437658;28;20224;-70
2022/02/18 03:59:31;;;;;;;2.87;0.73;;;17.30;63.30;;;;;;10455894;28;20185;-69
2022/02/18 04:04:54;;;;;;;1.70;0.70;;;17.30;63.30;;;;;;10454646;28;20221;-69
2022/02/18 04:10:16;;;;;;;1.33;0.60;;;17.30;63.30;;;;;;10455702;28;20213;-72
2022/02/18 04:15:39;;;;;;;2.70;0.80;;;17.30;63.30;;;;;;10426070;28;20217;-69
2022/02/18 04:21:02;;;;;;;2.53;0.90;;;17.30;63.30;;;;;;10456127;28;20221;-69
2022/02/18 04:26:24;;;;;;;2.43;0.90;;;17.30;63.30;;;;;;10454906;28;20219;-68
2022/02/18 04:31:48;;;;;;;3.13;0.93;;;17.30;63.30;;;;;;10420368;28;20228;-69
2022/02/18 04:37:10;;;;;;;3.43;0.93;;;17.30;63.30;;;;;;10448572;28;20221;-68
2022/02/18 04:42:33;;;;;;;3.87;1.20;;;17.30;63.30;;;;;;10454781;28;20213;-69
2022/02/18 04:47:56;;;;;;;2.03;0.77;;;17.30;63.30;;;;;;10454090;28;20573;-69
2022/02/18 04:53:18;;;;;;;1.03;0.70;;;17.30;63.20;;;;;;10434439;28;20222;-69
2022/02/18 04:58:40;;;;;;;2.30;0.97;;;17.40;63.30;;;;;;10439066;28;20189;-68
2022/02/18 05:04:04;;;;;;;1.50;0.67;;;17.40;63.30;;;;;;10454017;28;20354;-68
2022/02/18 05:09:27;;;;;;;1.37;0.80;;;17.40;63.20;;;;;;10451949;28;20240;-68
2022/02/18 05:14:51;;;;;;;2.27;0.90;;;17.40;63.30;;;;;;10452968;28;20212;-68
2022/02/18 05:20:14;;;;;;;2.03;0.80;;;17.40;63.30;;;;;;10452321;28;20200;-68
2022/02/18 05:25:36;;;;;;;1.70;0.67;;;17.40;63.20;;;;;;10451388;28;20228;-69
2022/02/18 05:30:58;;;;;;;2.30;0.80;;;17.40;63.30;;;;;;10452769;28;20220;-68
2022/02/18 05:36:22;;;;;;;2.33;0.80;;;17.40;63.30;;;;;;10451430;28;20568;-68
2022/02/18 05:41:44;;;;;;;3.17;1.20;;;17.40;63.30;;;;;;10437456;28;20205;-68
2022/02/18 05:47:07;;;;;;;1.70;0.63;;;17.40;63.30;;;;;;10447705;28;20231;-69
2022/02/18 05:52:30;;;;;;;1.33;0.60;;;17.40;63.30;;;;;;10440581;28;20220;-68
2022/02/18 05:57:52;;;;;;;3.10;1.03;;;17.40;63.20;;;;;;10451569;28;20564;-68
2022/02/18 06:03:14;;;;;;;1.03;0.70;;;17.40;63.30;;;;;;10449143;28;20213;-69
2022/02/18 06:08:38;;;;;;;2.13;0.97;;;17.40;63.30;;;;;;10451195;28;20224;-69
2022/02/18 06:14:00;;;;;;;3.90;0.73;;;17.40;63.30;;;;;;10451608;28;20730;-69
2022/02/18 06:19:22;;;;;;;2.23;1.00;;;17.40;63.30;;;;;;10452652;28;20193;-69
2022/02/18 06:24:45;;;;;;;2.33;0.90;;;17.40;63.40;;;;;;10450105;28;20213;-69
2022/02/18 06:30:08;;;;;;;1.87;0.70;;;17.40;63.30;;;;;;10460083;28;20224;-68
2022/02/18 06:35:30;;;;;;;2.30;1.03;;;17.40;63.40;;;;;;10449428;28;20553;-69
2022/02/18 06:40:54;;;;;;;2.17;0.70;;;17.40;63.50;;;;;;10459151;28;20196;-68
2022/02/18 06:46:16;;;;;;;3.03;0.97;;;17.40;63.30;;;;;;10431295;28;20221;-68
2022/02/18 06:51:38;;;;;;;2.00;0.67;;;17.40;63.30;;;;;;10450485;28;20216;-66
2022/02/18 06:57:02;;;;;;;2.33;1.03;;;17.40;63.50;;;;;;10456810;28;20227;-65
2022/02/18 07:02:24;;;;;;;2.10;0.90;;;17.50;63.90;;;;;;10457834;28;20560;-66
2022/02/18 07:07:46;;;;;;;1.60;0.70;;;17.50;64.00;;;;;;10458469;28;20805;-66
2022/02/18 07:13:10;;;;;;;2.30;0.80;;;17.60;64.00;;;;;;10457087;28;20217;-68
2022/02/18 07:18:32;;;;;;;2.80;1.10;;;17.60;63.90;;;;;;10457943;28;20679;-69
2022/02/18 07:23:54;;;;;;;2.00;0.83;;;17.50;63.30;;;;;;10455692;28;20220;-67
2022/02/18 07:29:18;;;;;;;2.43;1.10;;;17.50;63.70;;;;;;10455578;28;20216;-68
2022/02/18 07:34:40;;;;;;;1.20;0.77;;;17.50;63.80;;;;;;10456171;28;20821;-67
2022/02/18 07:40:03;;;;;;;1.37;0.80;;;17.60;64.00;;;;;;10454133;28;20193;-68
2022/02/18 07:45:27;;;;;;;2.93;1.30;;;17.60;64.00;;;;;;10456266;28;20220;-68
2022/02/18 07:50:49;;;;;;;4.50;1.23;;;17.60;63.90;;;;;;10441710;28;20213;-67
2022/02/18 07:56:11;;;;;;;2.23;0.90;;;17.60;63.80;;;;;;10453956;28;20224;-68
2022/02/18 08:01:34;;;;;;;2.57;1.20;;;17.60;63.70;;;;;;10456246;28;20194;-68
2022/02/18 08:06:56;;;;;;;3.47;1.53;;;17.60;63.70;;;;;;10449618;28;20213;-65
2022/02/18 08:12:19;;;;;;;3.93;1.17;;;17.60;63.30;;;;;;10456337;28;20217;-63
2022/02/18 08:17:42;;;;;;;4.63;1.50;;;17.50;62.90;;;;;;10455702;28;20217;-64
2022/02/18 08:23:04;;;;;;;3.70;1.43;;;17.50;62.80;;;;;;10427393;28;20201;-64
2022/02/18 08:28:26;;;;;;;2.27;1.40;;;17.50;62.80;;;;;;10454350;28;20208;-64
2022/02/18 08:33:50;;;;;;;4.10;1.47;;;17.50;63.10;;;;;;10455478;28;20224;-63
2022/02/18 08:39:12;;;;;;;2.77;1.27;;;17.50;62.70;;;;;;10420647;28;20189;-64
2022/02/18 08:44:34;;;;;;;3.27;1.63;;;17.50;62.70;;;;;;10454696;28;20700;-65
2022/02/18 08:49:58;;;;;;;3.47;1.27;;;17.50;62.80;;;;;;10454350;28;20220;-64
2022/02/18 08:55:22;;;;;;;3.43;1.27;;;17.50;62.90;;;;;;10452994;28;20209;-64
2022/02/18 09:00:44;;;;;;;5.87;1.73;;;17.50;63.10;;;;;;10452351;28;20204;-65
2022/02/18 09:06:08;;;;;;;1.83;1.23;;;17.50;63.30;;;;;;10452303;28;20699;-65
2022/02/18 09:11:30;;;;;;;2.83;1.30;;;17.50;63.40;;;;;;10453631;28;20220;-64
2022/02/18 09:16:52;;;;;;;3.63;1.40;;;17.50;63.50;;;;;;10452902;28;20240;-65
2022/02/18 09:22:16;;;;;;;3.23;1.60;;;17.40;63.50;;;;;;10453310;28;20200;-65
2022/02/18 09:27:38;;;;;;;2.60;1.20;;;17.50;63.60;;;;;;10452826;28;20213;-65
2022/02/18 09:33:00;;;;;;;3.00;1.23;;;17.50;63.70;;;;;;10444765;28;20982;-65
2022/02/18 09:38:26;;;;;;;1.77;0.83;;;17.50;63.80;;;;;;10442526;28;20843;-68
2022/02/18 09:43:50;;;;;;;2.33;1.17;;;17.40;63.90;;;;;;10445955;28;20219;-65
2022/02/18 09:49:13;;;;;;;3.40;1.30;;;17.50;64.20;;;;;;10452355;28;20209;-65
2022/02/18 09:54:37;;;;;;;1.53;0.90;;;17.50;64.10;;;;;;10446506;28;20216;-65
2022/02/18 09:59:59;;;;;;;3.07;1.20;;;17.50;63.80;;;;;;10422565;28;20186;-65
2022/02/18 10:05:21;;;;;;;1.87;1.00;;;17.50;63.80;;;;;;10452658;28;20224;-65
2022/02/18 10:10:58;;;;;;;4.47;1.30;;;17.50;63.80;;;;;;10452251;28;20227;-65
2022/02/18 10:16:21;;;;;;;2.27;1.20;;;17.50;63.70;;;;;;10451806;28;20584;-65
2022/02/18 10:21:44;;;;;;;3.30;1.60;;;17.50;63.90;;;;;;10450425;28;20185;-65
2022/02/18 10:27:08;;;;;;;3.37;0.97;;;17.40;63.90;;;;;;10451641;28;20223;-65
2022/02/18 10:32:39;;;;;;;1.90;1.03;;;17.40;63.90;;;;;;10451121;28;20246;-68
2022/02/18 10:38:02;;;;;;;1.70;0.87;;;17.50;64.20;;;;;;10442548;28;20774;-68
2022/02/18 10:43:26;;;;;;;2.37;1.00;;;17.50;64.50;;;;;;10442081;28;20209;-67
2022/02/18 10:48:50;;;;;;;1.97;0.97;;;17.50;64.60;;;;;;10451078;28;20213;-68
2022/02/18 10:54:12;;;;;;;2.33;0.90;;;17.50;64.60;;;;;;10451085;28;20229;-67
2022/02/18 10:59:36;;;;;;;2.80;0.90;;;17.50;64.50;;;;;;10451276;28;20200;-68
2022/02/18 11:04:59;;;;;;;1.40;0.83;;;17.60;64.50;;;;;;10450005;28;20691;-67
2022/02/18 11:10:31;;;;;;;1.97;0.90;;;17.60;64.50;;;;;;10457768;28;20217;-68
2022/02/18 11:15:55;;;;;;;2.50;0.93;;;17.60;64.40;;;;;;10456963;28;20714;-68
2022/02/18 11:21:18;;;;;;;2.60;1.10;;;17.60;64.40;;;;;;10458220;28;20618;-66
2022/02/18 11:26:42;;;;;;;2.63;1.00;;;17.60;64.40;;;;;;10459752;28;20217;-68
2022/02/18 11:32:16;;;;;;;2.00;1.20;;;17.60;64.40;;;;;;10445556;28;20311;-67
2022/02/18 11:38:08;;;;;;;2.03;0.90;;;17.60;64.30;;;;;;10457068;28;20229;-67
2022/02/18 11:43:34;;;;;;;0.90;0.60;;;17.60;64.20;;;;;;10456459;28;20215;-68
2022/02/18 11:48:59;;;;;;;3.20;0.90;;;17.60;64.30;;;;;;10457290;28;20213;-68
2022/02/18 11:54:25;;;;;;;1.80;0.87;;;17.60;64.30;;;;;;10453615;28;20715;-68
2022/02/18 11:59:59;;;;;;;2.07;0.80;;;17.60;64.20;;;;;;10455038;28;20200;-68
2022/02/18 12:05:22;;;;;;;2.57;1.03;;;17.60;64.10;;;;;;10435965;28;20245;-67
2022/02/18 12:10:54;;;;;;;2.03;0.80;;;17.60;64.10;;;;;;10451752;28;20221;-67
2022/02/18 12:16:17;;;;;;;1.53;0.90;;;17.60;64.00;;;;;;10428702;28;20217;-67
2022/02/18 12:22:02;;;;;;;3.00;0.90;;;17.60;64.10;;;;;;10455253;28;20196;-67
2022/02/18 12:27:34;;;;;;;2.33;1.00;;;17.70;63.90;;;;;;10418132;28;20642;-67
2022/02/18 12:32:57;;;;;;;2.23;0.97;;;17.60;63.90;;;;;;10454891;28;20205;-67
2022/02/18 12:38:21;;;;;;;1.70;0.80;;;17.60;64.00;;;;;;10453086;28;20216;-69
2022/02/18 12:43:43;;;;;;;2.27;0.97;;;17.60;64.00;;;;;;10455247;28;20214;-67
2022/02/18 12:49:05;;;;;;;1.43;0.77;;;17.60;64.00;;;;;;10417393;28;20213;-67
2022/02/18 12:54:45;;;;;;;2.42;0.93;;;17.60;64.00;;;;;;10433122;28;20507;-65
2022/02/18 13:00:10;;;;;;;1.67;1.00;;;17.90;62.80;;;;;;10429481;28;20193;-65
2022/02/18 13:05:36;;;;;;;1.30;0.70;;;17.70;63.50;;;;;;10453385;28;20303;-65
2022/02/18 13:11:11;;;;;;;1.93;1.00;;;17.70;63.80;;;;;;10448481;28;20217;-65
2022/02/18 13:16:34;;;;;;;1.10;0.70;;;17.70;63.80;;;;;;10453540;28;20723;-65
2022/02/18 13:21:57;;;;;;;2.13;0.87;;;17.60;64.00;;;;;;10453401;28;20571;-66
2022/02/18 13:27:20;;;;;;;1.53;0.80;;;17.60;64.10;;;;;;10421053;28;20247;-65
2022/02/18 13:32:42;;;;;;;1.80;0.97;;;17.60;64.10;;;;;;10435314;28;20565;-66
2022/02/18 13:38:15;;;;;;;1.83;0.70;;;17.60;64.10;;;;;;10411653;28;20225;-65
2022/02/18 13:43:41;;;;;;;2.70;1.10;;;17.60;64.00;;;;;;10453349;28;20691;-66
2022/02/18 13:49:06;;;;;;;2.30;0.93;;;17.60;64.10;;;;;;10448496;28;20860;-65
2022/02/18 13:54:30;;;;;;;2.17;0.83;;;17.60;64.20;;;;;;10443941;28;20217;-66
2022/02/18 13:59:55;;;;;;;1.43;0.87;;;17.60;64.10;;;;;;10452073;28;20671;-64
2022/02/18 14:05:27;;;;;;;3.07;1.10;;;17.50;64.10;;;;;;10434205;28;20219;-67
2022/02/18 14:10:52;;;;;;;3.17;1.10;;;17.60;64.40;;;;;;10446899;28;20683;-66
2022/02/18 14:16:17;;;;;;;2.33;0.80;;;17.60;64.50;;;;;;10446470;28;20684;-64
2022/02/18 14:21:42;;;;;;;1.63;0.83;;;17.60;64.50;;;;;;10447607;28;20189;-65
2022/02/18 14:27:06;;;;;;;2.07;0.70;;;17.60;64.50;;;;;;10448037;28;20232;-66
2022/02/18 14:32:33;;;;;;;1.90;0.90;;;17.60;64.60;;;;;;10445435;28;20686;-68
2022/02/18 14:38:03;;;;;;;2.03;0.90;;;17.60;64.60;;;;;;10451967;28;20192;-67
2022/02/18 14:43:25;;;;;;;1.90;0.80;;;17.60;64.60;;;;;;10440992;28;20587;-66
2022/02/18 14:48:49;;;;;;;1.97;0.87;;;17.60;64.70;;;;;;10459198;28;20582;-67
2022/02/18 14:54:14;;;;;;;1.47;0.80;;;17.60;64.70;;;;;;10444284;28;20220;-67
2022/02/18 14:59:36;;;;;;;2.03;0.70;;;17.60;64.60;;;;;;10458650;28;20189;-69
2022/02/18 15:05:00;;;;;;;1.93;0.90;;;17.60;64.70;;;;;;10459024;28;20213;-68
2022/02/18 15:10:22;;;;;;;1.93;0.87;;;17.70;64.80;;;;;;10452088;28;20213;-67
2022/02/18 15:15:44;;;;;;;2.37;0.70;;;17.70;64.70;;;;;;10457112;28;20295;-68
2022/02/18 15:21:08;;;;;;;1.13;0.70;;;17.70;65.30;;;;;;10460491;28;20670;-67
2022/02/18 15:26:30;;;;;;;1.97;1.00;;;17.60;65.30;;;;;;10439129;28;20607;-68
2022/02/18 15:37:33;;;;;;;1.53;1.07;;;17.70;64.90;;;;;;10424561;28;20214;-68
2022/02/18 15:42:56;;;;;;;1.60;0.80;;;17.70;64.90;;;;;;10444275;28;20200;-68
2022/02/18 15:48:18;;;;;;;5.77;0.93;;;17.70;64.90;;;;;;10459220;28;20208;-67
2022/02/18 15:53:41;;;;;;;1.50;0.83;;;17.70;64.90;;;;;;10453161;28;20233;-67
2022/02/18 15:59:03;;;;;;;2.70;1.00;;;17.70;64.90;;;;;;10423664;28;20202;-69
2022/02/18 16:04:32;;;;;;;3.07;0.90;;;17.60;64.90;;;;;;10441576;28;20815;-68
2022/02/18 16:09:55;;;;;;;1.73;0.77;;;18.40;62.40;;;;;;10453355;28;20470;-72
2022/02/18 16:15:17;;;;;;;2.40;0.70;;;18.00;63.80;;;;;;10446572;28;20730;-69
2022/02/18 16:20:40;;;;;;;2.00;0.60;;;17.90;64.60;;;;;;10454416;28;20201;-69
2022/02/18 16:26:04;;;;;;;1.60;0.60;;;17.80;65.10;;;;;;10450143;28;20213;-69
2022/02/18 16:31:26;;;;;;;2.17;0.43;;;17.80;64.70;;;;;;10425743;28;20229;-71
2022/02/18 16:36:49;;;;;;;1.47;0.80;;;17.80;64.70;;;;;;10443386;28;20229;-70
2022/02/18 16:42:12;;;;;;;1.30;0.63;;;17.80;64.80;;;;;;10450994;28;20196;-69
2022/02/18 16:47:35;;;;;;;2.43;0.97;;;17.80;65.30;;;;;;10454799;28;20304;-73
2022/02/18 16:52:57;;;;;;;3.17;1.07;;;17.80;65.70;;;;;;10423307;28;20217;-71
2022/02/18 16:58:21;;;;;;;4.00;0.77;;;17.80;65.70;;;;;;10426729;28;20817;-74
2022/02/18 17:03:43;;;;;;;2.97;0.47;;;17.90;65.70;;;;;;10452311;28;20214;-70
2022/02/18 17:09:05;;;;;;;1.70;0.60;;;17.90;65.50;;;;;;10459503;28;20213;-70
2022/02/18 17:14:28;;;;;;;2.13;0.57;;;17.90;65.30;;;;;;10455153;28;20211;-68
2022/02/18 17:19:51;;;;;;;1.87;0.80;;;17.90;65.30;;;;;;10443669;28;20694;-69
2022/02/18 17:25:13;;;;;;;3.27;0.90;;;17.90;65.30;;;;;;10436077;28;20220;-70
2022/02/18 17:30:37;;;;;;;1.63;0.70;;;17.90;65.30;;;;;;10416598;28;20221;-70
2022/02/18 17:35:59;;;;;;;1.70;0.63;;;17.90;65.30;;;;;;10410827;28;20236;-67
2022/02/18 17:41:21;;;;;;;1.77;0.77;;;17.90;65.40;;;;;;10411772;28;20715;-69
2022/02/18 17:46:45;;;;;;;1.43;0.70;;;17.80;65.50;;;;;;10440226;28;20703;-69
2022/02/18 17:52:08;;;;;;;1.50;0.60;;;17.90;65.60;;;;;;10432051;28;20221;-74
2022/02/18 17:57:30;;;;;;;1.73;0.60;;;17.90;65.50;;;;;;10439086;28;20310;-67
2022/02/18 18:02:54;;;;;;;1.77;0.80;;;17.90;65.60;;;;;;10411150;28;20300;-65
2022/02/18 18:08:16;;;;;;;2.40;1.00;;;17.90;65.60;;;;;;10430049;28;20219;-66
2022/02/18 18:13:38;;;;;;;4.53;1.10;;;17.80;65.40;;;;;;10413751;28;20725;-66
2022/02/18 18:19:06;;;;;;;2.23;0.80;;;17.80;65.30;;;;;;10405320;28;20379;-67
2022/02/18 18:24:28;;;;;;;2.60;0.90;;;17.80;65.20;;;;;;10439458;28;20282;-66
2022/02/18 18:29:51;;;;;;;3.50;1.02;;;17.80;65.10;;;;;;10427855;28;20944;-69
2022/02/18 18:35:14;;;;;;;2.83;1.13;;;18.30;63.40;;;;;;10417692;28;20439;-67
2022/02/18 18:40:37;;;;;;;3.03;1.13;;;19.00;60.90;;;;;;10444261;28;20193;-67
2022/02/18 18:45:59;;;;;;;5.20;1.03;;;18.20;63.50;;;;;;10430235;28;20254;-67
2022/02/18 18:51:24;;;;;;;2.50;0.97;;;18.00;64.10;;;;;;10431634;28;20249;-66
2022/02/18 18:56:47;;;;;;;3.60;1.20;;;17.80;64.40;;;;;;10436567;28;20213;-67
2022/02/18 19:02:09;;;;;;;3.57;1.00;;;17.70;64.50;;;;;;10442917;28;20200;-67
2022/02/18 19:07:32;;;;;;;3.90;1.20;;;17.70;64.80;;;;;;10437777;28;20592;-68
2022/02/18 19:12:54;;;;;;;2.53;0.90;;;17.70;64.80;;;;;;10444193;28;20779;-67
2022/02/18 19:18:17;;;;;;;3.43;0.90;;;17.70;64.90;;;;;;10432721;28;20205;-67
2022/02/18 19:23:41;;;;;;;3.63;1.17;;;17.70;64.80;;;;;;10443558;28;20270;-67
2022/02/18 19:29:04;;;;;;;3.40;1.23;;;17.60;64.80;;;;;;10446048;28;20695;-66
2022/02/18 19:34:28;;;;;;;2.73;1.13;;;17.60;64.90;;;;;;10450443;28;20221;-67
2022/02/18 19:39:51;;;;;;;2.83;1.20;;;17.60;64.90;;;;;;10451342;28;20270;-67
2022/02/18 19:45:13;;;;;;;3.07;0.87;;;17.70;65.00;;;;;;10450778;28;20223;-68
2022/02/18 19:50:35;;;;;;;3.57;1.10;;;17.60;65.00;;;;;;10445434;28;20226;-67
2022/02/18 19:55:59;;;;;;;1.43;0.80;;;17.60;65.00;;;;;;10439097;28;20259;-67
2022/02/18 20:01:21;;;;;;;2.53;1.07;;;17.60;65.00;;;;;;10451233;28;20200;-66
2022/02/18 20:06:44;;;;;;;2.60;1.00;;;17.60;65.00;;;;;;10410015;28;20817;-67
2022/02/18 20:12:09;;;;;;;1.10;0.80;;;17.60;65.00;;;;;;10411838;28;20209;-68
2022/02/18 20:17:31;;;;;;;2.20;0.70;;;17.60;65.00;;;;;;10409331;28;20232;-67
2022/02/18 20:22:57;;;;;;;1.30;0.80;;;17.60;65.00;;;;;;10442968;28;20335;-68
2022/02/18 20:28:21;;;;;;;2.50;1.17;;;17.60;65.00;;;;;;10450583;28;20199;-66
2022/02/18 20:33:43;;;;;;;2.60;0.97;;;17.60;64.80;;;;;;10449358;28;20228;-67
2022/02/18 20:39:05;;;;;;;2.67;0.90;;;17.60;64.90;;;;;;10446015;28;20189;-67
2022/02/18 20:44:28;;;;;;;2.90;1.10;;;17.60;65.00;;;;;;10450005;28;20205;-67
2022/02/18 20:49:51;;;;;;;2.53;0.90;;;17.60;64.90;;;;;;10450234;28;20331;-67
2022/02/18 20:55:13;;;;;;;1.10;0.70;;;17.60;64.80;;;;;;10416809;28;20213;-66
2022/02/18 21:00:37;;;;;;;3.10;0.80;;;17.60;64.80;;;;;;10413540;28;20186;-67
2022/02/18 21:05:59;;;;;;;1.80;0.80;;;17.60;64.90;;;;;;10413529;28;20217;-67
2022/02/18 21:11:23;;;;;;;2.43;0.83;;;17.60;64.80;;;;;;10452857;28;20221;-66
2022/02/18 21:16:48;;;;;;;3.20;1.10;;;17.60;64.80;;;;;;10449159;28;20217;-67
2022/02/18 21:22:10;;;;;;;1.40;0.80;;;17.60;64.60;;;;;;10426366;28;20727;-67
2022/02/18 21:27:33;;;;;;;1.20;0.70;;;17.60;64.60;;;;;;10447682;28;20213;-66
2022/02/18 21:32:56;;;;;;;1.77;0.73;;;17.60;64.80;;;;;;10452905;28;20221;-66
2022/02/18 21:38:18;;;;;;;1.50;0.73;;;17.60;64.60;;;;;;10454057;28;20666;-67
2022/02/18 21:43:40;;;;;;;1.37;0.90;;;17.50;64.50;;;;;;10451999;28;20216;-67
2022/02/18 21:49:04;;;;;;;2.23;0.70;;;17.50;64.60;;;;;;10450139;28;20196;-67
2022/02/18 21:54:27;;;;;;;1.50;0.70;;;17.50;64.70;;;;;;10418696;28;20213;-68
2022/02/18 21:59:49;;;;;;;1.20;0.67;;;17.50;64.60;;;;;;10418302;28;20185;-66
2022/02/18 22:05:12;;;;;;;2.70;0.80;;;17.50;64.60;;;;;;10449749;28;20232;-67
2022/02/18 22:10:35;;;;;;;1.10;0.70;;;17.50;64.60;;;;;;10452061;28;20216;-67
2022/02/18 22:15:57;;;;;;;1.33;0.80;;;17.50;64.50;;;;;;10451797;28;20683;-67
2022/02/18 22:21:22;;;;;;;2.33;0.67;;;17.50;64.60;;;;;;10452382;28;20190;-66
2022/02/18 22:26:47;;;;;;;1.10;0.57;;;17.50;64.60;;;;;;10451127;28;20215;-67
2022/02/18 22:32:09;;;;;;;3.43;0.70;;;17.50;64.60;;;;;;10410453;28;20766;-69
2022/02/18 22:37:33;;;;;;;2.23;0.70;;;17.50;64.50;;;;;;10436591;28;20224;-67
2022/02/18 22:42:55;;;;;;;2.83;0.60;;;17.50;64.60;;;;;;10420081;28;20193;-67
2022/02/18 22:48:17;;;;;;;2.30;0.80;;;17.50;64.50;;;;;;10414317;28;20197;-67
2022/02/18 22:53:41;;;;;;;1.20;0.53;;;17.50;64.50;;;;;;10434742;28;20295;-67
2022/02/18 22:59:04;;;;;;;1.77;0.70;;;17.50;64.50;;;;;;10451053;28;20204;-67
2022/02/18 23:04:26;;;;;;;1.80;0.90;;;17.50;64.30;;;;;;10457165;28;20217;-67
2022/02/18 23:09:49;;;;;;;1.60;0.90;;;17.50;64.30;;;;;;10458824;28;20197;-66
2022/02/18 23:15:11;;;;;;;2.10;0.90;;;17.50;64.30;;;;;;10458527;28;20739;-68
2022/02/18 23:20:33;;;;;;;1.50;0.70;;;17.40;64.00;;;;;;10460492;28;20691;-66
2022/02/18 23:25:57;;;;;;;1.50;0.73;;;17.40;64.00;;;;;;10439991;28;20211;-67
2022/02/18 23:31:19;;;;;;;2.33;0.90;;;17.40;64.00;;;;;;10456283;28;20687;-67
2022/02/18 23:36:41;;;;;;;1.20;0.80;;;17.50;63.80;;;;;;10413655;28;20773;-67
2022/02/18 23:42:06;;;;;;;2.00;0.70;;;17.50;63.80;;;;;;10406589;28;20213;-67
2022/02/18 23:47:28;;;;;;;1.83;0.80;;;17.50;63.90;;;;;;10433741;28;20252;-68
2022/02/18 23:52:50;;;;;;;1.50;0.67;;;17.40;63.70;;;;;;10440749;28;20319;-67
2022/02/18 23:58:14;;;;;;;4.43;1.03;;;17.50;63.60;;;;;;10410473;28;20209;-67
